sensor_id;sensor_type;location;lat;lon;timestamp;P1;durP1;ratioP1;P2;durP2;ratioP2
66087;SDS011;52872;52.994;6.940;2023-03-03T00:01:03;62.42;;;15.75;;
66087;SDS011;52872;52.994;6.940;2023-03-03T00:03:31;43.08;;;15.70;;
66087;SDS011;52872;52.994;6.940;2023-03-03T00:05:58;61.38;;;14.90;;
66087;SDS011;52872;52.994;6.940;2023-03-03T00:08:25;89.88;;;18.73;;
66087;SDS011;52872;52.994;6.940;2023-03-03T00:10:52;50.65;;;17.13;;
66087;SDS011;52872;52.994;6.940;2023-03-03T00:13:22;54.30;;;13.80;;
66087;SDS011;52872;52.994;6.940;2023-03-03T00:15:50;36.88;;;13.70;;
66087;SDS011;52872;52.994;6.940;2023-03-03T00:21:18;35.35;;;14.43;;
66087;SDS011;52872;52.994;6.940;2023-03-03T00:24:16;182.50;;;20.88;;
66087;SDS011;52872;52.994;6.940;2023-03-03T00:27:16;75.35;;;15.75;;
66087;SDS011;52872;52.994;6.940;2023-03-03T00:29:52;60.75;;;15.60;;
66087;SDS011;52872;52.994;6.940;2023-03-03T00:34:49;191.98;;;20.60;;
66087;SDS011;52872;52.994;6.940;2023-03-03T00:43:11;189.43;;;22.27;;
66087;SDS011;52872;52.994;6.940;2023-03-03T00:46:01;165.77;;;18.92;;
66087;SDS011;52872;52.994;6.940;2023-03-03T00:51:07;335.00;;;28.73;;
66087;SDS011;52872;52.994;6.940;2023-03-03T00:53:55;93.50;;;18.63;;
66087;SDS011;52872;52.994;6.940;2023-03-03T00:56:23;249.93;;;24.25;;
66087;SDS011;52872;52.994;6.940;2023-03-03T00:58:51;157.27;;;19.02;;
66087;SDS011;52872;52.994;6.940;2023-03-03T01:01:20;189.20;;;22.27;;
66087;SDS011;52872;52.994;6.940;2023-03-03T01:03:50;223.70;;;24.70;;
66087;SDS011;52872;52.994;6.940;2023-03-03T01:06:17;289.85;;;25.42;;
66087;SDS011;52872;52.994;6.940;2023-03-03T01:08:44;152.60;;;21.58;;
66087;SDS011;52872;52.994;6.940;2023-03-03T01:11:12;244.70;;;23.88;;
66087;SDS011;52872;52.994;6.940;2023-03-03T01:13:46;124.60;;;21.08;;
66087;SDS011;52872;52.994;6.940;2023-03-03T01:16:14;275.35;;;28.05;;
66087;SDS011;52872;52.994;6.940;2023-03-03T01:18:42;224.82;;;24.70;;
66087;SDS011;52872;52.994;6.940;2023-03-03T01:21:09;125.45;;;20.98;;
66087;SDS011;52872;52.994;6.940;2023-03-03T01:23:37;137.77;;;19.83;;
66087;SDS011;52872;52.994;6.940;2023-03-03T01:26:04;212.27;;;21.73;;
66087;SDS011;52872;52.994;6.940;2023-03-03T01:28:32;198.63;;;23.50;;
66087;SDS011;52872;52.994;6.940;2023-03-03T01:31:03;225.23;;;24.95;;
66087;SDS011;52872;52.994;6.940;2023-03-03T01:33:32;235.38;;;25.20;;
66087;SDS011;52872;52.994;6.940;2023-03-03T01:36:00;171.10;;;21.63;;
66087;SDS011;52872;52.994;6.940;2023-03-03T01:38:28;151.48;;;22.10;;
66087;SDS011;52872;52.994;6.940;2023-03-03T01:40:56;203.73;;;24.90;;
66087;SDS011;52872;52.994;6.940;2023-03-03T01:43:28;156.48;;;22.13;;
66087;SDS011;52872;52.994;6.940;2023-03-03T01:53:45;101.03;;;20.38;;
66087;SDS011;52872;52.994;6.940;2023-03-03T01:56:16;96.95;;;18.40;;
66087;SDS011;52872;52.994;6.940;2023-03-03T01:59:06;95.32;;;19.60;;
66087;SDS011;52872;52.994;6.940;2023-03-03T02:01:32;140.60;;;20.70;;
66087;SDS011;52872;52.994;6.940;2023-03-03T02:04:00;97.28;;;18.95;;
66087;SDS011;52872;52.994;6.940;2023-03-03T02:06:32;151.18;;;19.90;;
66087;SDS011;52872;52.994;6.940;2023-03-03T02:12:10;139.77;;;21.55;;
66087;SDS011;52872;52.994;6.940;2023-03-03T02:14:39;223.93;;;24.45;;
66087;SDS011;52872;52.994;6.940;2023-03-03T02:17:06;162.35;;;19.08;;
66087;SDS011;52872;52.994;6.940;2023-03-03T02:19:54;186.73;;;23.15;;
66087;SDS011;52872;52.994;6.940;2023-03-03T02:22:31;156.73;;;20.10;;
66087;SDS011;52872;52.994;6.940;2023-03-03T02:26:04;154.13;;;19.00;;
66087;SDS011;52872;52.994;6.940;2023-03-03T02:28:15;181.55;;;18.83;;
66087;SDS011;52872;52.994;6.940;2023-03-03T02:30:42;169.45;;;21.98;;
66087;SDS011;52872;52.994;6.940;2023-03-03T02:33:09;400.73;;;31.10;;
66087;SDS011;52872;52.994;6.940;2023-03-03T02:35:37;398.45;;;34.00;;
66087;SDS011;52872;52.994;6.940;2023-03-03T02:38:11;135.43;;;18.92;;
66087;SDS011;52872;52.994;6.940;2023-03-03T02:40:56;133.45;;;23.40;;
66087;SDS011;52872;52.994;6.940;2023-03-03T02:43:25;236.10;;;26.13;;
66087;SDS011;52872;52.994;6.940;2023-03-03T02:48:26;126.50;;;19.80;;
66087;SDS011;52872;52.994;6.940;2023-03-03T02:50:53;161.48;;;20.20;;
66087;SDS011;52872;52.994;6.940;2023-03-03T02:53:20;135.60;;;19.20;;
66087;SDS011;52872;52.994;6.940;2023-03-03T02:55:46;130.02;;;19.02;;
66087;SDS011;52872;52.994;6.940;2023-03-03T02:58:13;100.82;;;20.13;;
66087;SDS011;52872;52.994;6.940;2023-03-03T03:00:40;173.30;;;20.73;;
66087;SDS011;52872;52.994;6.940;2023-03-03T03:03:08;385.98;;;34.15;;
66087;SDS011;52872;52.994;6.940;2023-03-03T03:05:36;166.43;;;22.60;;
66087;SDS011;52872;52.994;6.940;2023-03-03T03:08:04;169.82;;;21.85;;
66087;SDS011;52872;52.994;6.940;2023-03-03T03:10:31;156.07;;;21.02;;
66087;SDS011;52872;52.994;6.940;2023-03-03T03:12:58;168.75;;;22.30;;
66087;SDS011;52872;52.994;6.940;2023-03-03T03:15:25;248.57;;;26.00;;
66087;SDS011;52872;52.994;6.940;2023-03-03T03:17:52;179.88;;;22.25;;
66087;SDS011;52872;52.994;6.940;2023-03-03T03:20:19;165.52;;;22.08;;
66087;SDS011;52872;52.994;6.940;2023-03-03T03:22:46;186.13;;;22.95;;
66087;SDS011;52872;52.994;6.940;2023-03-03T03:25:13;200.27;;;24.00;;
66087;SDS011;52872;52.994;6.940;2023-03-03T03:27:42;229.75;;;26.23;;
66087;SDS011;52872;52.994;6.940;2023-03-03T03:30:09;330.20;;;32.15;;
66087;SDS011;52872;52.994;6.940;2023-03-03T03:32:37;215.75;;;27.50;;
66087;SDS011;52872;52.994;6.940;2023-03-03T03:35:05;173.43;;;23.88;;
66087;SDS011;52872;52.994;6.940;2023-03-03T03:37:32;181.95;;;22.73;;
66087;SDS011;52872;52.994;6.940;2023-03-03T03:39:59;167.32;;;21.13;;
66087;SDS011;52872;52.994;6.940;2023-03-03T03:42:28;165.50;;;20.30;;
66087;SDS011;52872;52.994;6.940;2023-03-03T03:44:56;164.93;;;19.40;;
66087;SDS011;52872;52.994;6.940;2023-03-03T03:47:23;131.23;;;18.70;;
66087;SDS011;52872;52.994;6.940;2023-03-03T03:49:50;68.82;;;11.25;;
66087;SDS011;52872;52.994;6.940;2023-03-03T03:52:18;116.78;;;16.42;;
66087;SDS011;52872;52.994;6.940;2023-03-03T03:54:45;106.30;;;15.98;;
66087;SDS011;52872;52.994;6.940;2023-03-03T03:57:12;122.18;;;17.35;;
66087;SDS011;52872;52.994;6.940;2023-03-03T03:59:41;132.93;;;16.48;;
66087;SDS011;52872;52.994;6.940;2023-03-03T04:02:08;294.80;;;25.13;;
66087;SDS011;52872;52.994;6.940;2023-03-03T04:04:35;118.95;;;17.70;;
66087;SDS011;52872;52.994;6.940;2023-03-03T04:07:03;153.70;;;16.65;;
66087;SDS011;52872;52.994;6.940;2023-03-03T04:09:30;106.50;;;17.10;;
66087;SDS011;52872;52.994;6.940;2023-03-03T04:11:57;112.38;;;16.40;;
66087;SDS011;52872;52.994;6.940;2023-03-03T04:14:25;90.88;;;14.20;;
66087;SDS011;52872;52.994;6.940;2023-03-03T04:16:53;132.40;;;17.85;;
66087;SDS011;52872;52.994;6.940;2023-03-03T04:19:20;94.05;;;14.43;;
66087;SDS011;52872;52.994;6.940;2023-03-03T04:21:49;148.50;;;16.00;;
66087;SDS011;52872;52.994;6.940;2023-03-03T04:24:16;141.60;;;16.77;;
66087;SDS011;52872;52.994;6.940;2023-03-03T04:26:47;223.88;;;20.23;;
66087;SDS011;52872;52.994;6.940;2023-03-03T04:29:14;137.18;;;17.55;;
66087;SDS011;52872;52.994;6.940;2023-03-03T04:31:42;108.88;;;16.52;;
66087;SDS011;52872;52.994;6.940;2023-03-03T04:34:10;128.38;;;18.02;;
66087;SDS011;52872;52.994;6.940;2023-03-03T04:36:37;240.38;;;21.25;;
66087;SDS011;52872;52.994;6.940;2023-03-03T04:39:05;175.60;;;18.08;;
66087;SDS011;52872;52.994;6.940;2023-03-03T04:41:32;108.97;;;15.15;;
66087;SDS011;52872;52.994;6.940;2023-03-03T04:43:59;97.63;;;15.10;;
66087;SDS011;52872;52.994;6.940;2023-03-03T04:46:26;219.75;;;19.60;;
66087;SDS011;52872;52.994;6.940;2023-03-03T04:48:53;157.93;;;16.40;;
66087;SDS011;52872;52.994;6.940;2023-03-03T04:51:21;117.07;;;16.42;;
66087;SDS011;52872;52.994;6.940;2023-03-03T04:53:48;130.35;;;18.52;;
66087;SDS011;52872;52.994;6.940;2023-03-03T04:56:16;244.57;;;23.50;;
66087;SDS011;52872;52.994;6.940;2023-03-03T04:58:43;220.48;;;20.55;;
66087;SDS011;52872;52.994;6.940;2023-03-03T05:01:13;328.20;;;26.30;;
66087;SDS011;52872;52.994;6.940;2023-03-03T05:03:41;113.13;;;23.00;;
66087;SDS011;52872;52.994;6.940;2023-03-03T05:06:08;194.40;;;22.30;;
66087;SDS011;52872;52.994;6.940;2023-03-03T05:08:35;114.38;;;18.65;;
66087;SDS011;52872;52.994;6.940;2023-03-03T05:11:02;106.95;;;17.80;;
66087;SDS011;52872;52.994;6.940;2023-03-03T05:13:29;130.60;;;20.38;;
66087;SDS011;52872;52.994;6.940;2023-03-03T05:15:57;134.55;;;21.90;;
66087;SDS011;52872;52.994;6.940;2023-03-03T05:18:24;182.93;;;21.15;;
66087;SDS011;52872;52.994;6.940;2023-03-03T05:20:51;152.18;;;20.23;;
66087;SDS011;52872;52.994;6.940;2023-03-03T05:23:19;155.68;;;20.65;;
66087;SDS011;52872;52.994;6.940;2023-03-03T05:25:47;149.70;;;20.63;;
66087;SDS011;52872;52.994;6.940;2023-03-03T05:28:14;141.68;;;21.02;;
66087;SDS011;52872;52.994;6.940;2023-03-03T05:30:42;142.77;;;19.35;;
66087;SDS011;52872;52.994;6.940;2023-03-03T05:33:11;186.25;;;20.80;;
66087;SDS011;52872;52.994;6.940;2023-03-03T05:35:40;151.57;;;19.30;;
66087;SDS011;52872;52.994;6.940;2023-03-03T05:38:07;114.60;;;16.55;;
66087;SDS011;52872;52.994;6.940;2023-03-03T05:40:35;147.38;;;19.27;;
66087;SDS011;52872;52.994;6.940;2023-03-03T05:43:03;208.65;;;20.27;;
66087;SDS011;52872;52.994;6.940;2023-03-03T05:45:30;133.07;;;17.65;;
66087;SDS011;52872;52.994;6.940;2023-03-03T05:47:57;147.63;;;17.90;;
66087;SDS011;52872;52.994;6.940;2023-03-03T05:50:24;162.43;;;19.48;;
66087;SDS011;52872;52.994;6.940;2023-03-03T05:52:51;135.23;;;16.75;;
66087;SDS011;52872;52.994;6.940;2023-03-03T05:55:18;172.30;;;19.95;;
66087;SDS011;52872;52.994;6.940;2023-03-03T05:57:45;181.45;;;19.08;;
66087;SDS011;52872;52.994;6.940;2023-03-03T06:00:13;161.50;;;17.85;;
66087;SDS011;52872;52.994;6.940;2023-03-03T06:02:41;146.35;;;18.13;;
66087;SDS011;52872;52.994;6.940;2023-03-03T06:05:08;139.00;;;17.13;;
66087;SDS011;52872;52.994;6.940;2023-03-03T06:07:35;126.68;;;16.27;;
66087;SDS011;52872;52.994;6.940;2023-03-03T06:10:03;128.73;;;15.90;;
66087;SDS011;52872;52.994;6.940;2023-03-03T06:12:33;179.38;;;22.92;;
66087;SDS011;52872;52.994;6.940;2023-03-03T06:15:00;132.82;;;16.27;;
66087;SDS011;52872;52.994;6.940;2023-03-03T06:17:27;147.25;;;15.35;;
66087;SDS011;52872;52.994;6.940;2023-03-03T06:19:54;130.93;;;15.52;;
66087;SDS011;52872;52.994;6.940;2023-03-03T06:22:21;173.70;;;18.02;;
66087;SDS011;52872;52.994;6.940;2023-03-03T06:24:48;146.90;;;15.27;;
66087;SDS011;52872;52.994;6.940;2023-03-03T06:27:15;127.10;;;15.98;;
66087;SDS011;52872;52.994;6.940;2023-03-03T06:29:42;130.93;;;14.75;;
66087;SDS011;52872;52.994;6.940;2023-03-03T06:32:09;127.65;;;14.32;;
66087;SDS011;52872;52.994;6.940;2023-03-03T06:34:37;123.78;;;15.13;;
66087;SDS011;52872;52.994;6.940;2023-03-03T06:37:04;126.22;;;14.07;;
66087;SDS011;52872;52.994;6.940;2023-03-03T06:39:31;99.78;;;12.05;;
66087;SDS011;52872;52.994;6.940;2023-03-03T06:41:58;131.13;;;12.63;;
66087;SDS011;52872;52.994;6.940;2023-03-03T06:44:25;111.40;;;12.85;;
66087;SDS011;52872;52.994;6.940;2023-03-03T06:46:54;171.88;;;16.95;;
66087;SDS011;52872;52.994;6.940;2023-03-03T06:49:23;107.95;;;12.07;;
66087;SDS011;52872;52.994;6.940;2023-03-03T06:51:50;91.78;;;12.07;;
66087;SDS011;52872;52.994;6.940;2023-03-03T06:54:18;119.47;;;11.73;;
66087;SDS011;52872;52.994;6.940;2023-03-03T06:56:59;97.53;;;10.70;;
66087;SDS011;52872;52.994;6.940;2023-03-03T06:59:39;94.78;;;9.88;;
66087;SDS011;52872;52.994;6.940;2023-03-03T07:02:11;73.20;;;8.93;;
66087;SDS011;52872;52.994;6.940;2023-03-03T07:04:42;118.28;;;10.50;;
66087;SDS011;52872;52.994;6.940;2023-03-03T07:09:39;81.28;;;11.80;;
66087;SDS011;52872;52.994;6.940;2023-03-03T07:12:09;125.35;;;11.52;;
66087;SDS011;52872;52.994;6.940;2023-03-03T07:14:41;112.22;;;11.50;;
66087;SDS011;52872;52.994;6.940;2023-03-03T07:17:16;125.32;;;11.65;;
66087;SDS011;52872;52.994;6.940;2023-03-03T07:19:45;168.52;;;13.18;;
66087;SDS011;52872;52.994;6.940;2023-03-03T07:24:48;87.13;;;11.15;;
66087;SDS011;52872;52.994;6.940;2023-03-03T07:29:45;87.82;;;12.05;;
66087;SDS011;52872;52.994;6.940;2023-03-03T07:32:26;91.20;;;10.75;;
66087;SDS011;52872;52.994;6.940;2023-03-03T07:35:07;141.25;;;12.73;;
66087;SDS011;52872;52.994;6.940;2023-03-03T07:38:49;100.82;;;9.10;;
66087;SDS011;52872;52.994;6.940;2023-03-03T07:41:00;113.90;;;11.13;;
66087;SDS011;52872;52.994;6.940;2023-03-03T07:43:37;110.72;;;12.55;;
66087;SDS011;52872;52.994;6.940;2023-03-03T07:48:50;65.22;;;9.40;;
66087;SDS011;52872;52.994;6.940;2023-03-03T07:51:20;85.30;;;10.40;;
66087;SDS011;52872;52.994;6.940;2023-03-03T07:54:16;91.10;;;9.63;;
66087;SDS011;52872;52.994;6.940;2023-03-03T07:56:43;65.47;;;9.82;;
66087;SDS011;52872;52.994;6.940;2023-03-03T07:59:21;78.50;;;8.85;;
66087;SDS011;52872;52.994;6.940;2023-03-03T08:01:54;59.65;;;8.25;;
66087;SDS011;52872;52.994;6.940;2023-03-03T08:06:58;54.03;;;7.78;;
66087;SDS011;52872;52.994;6.940;2023-03-03T08:09:35;49.95;;;6.90;;
66087;SDS011;52872;52.994;6.940;2023-03-03T08:14:33;72.70;;;8.05;;
66087;SDS011;52872;52.994;6.940;2023-03-03T08:17:01;58.55;;;7.75;;
66087;SDS011;52872;52.994;6.940;2023-03-03T08:19:39;41.75;;;6.80;;
66087;SDS011;52872;52.994;6.940;2023-03-03T08:22:14;55.33;;;8.40;;
66087;SDS011;52872;52.994;6.940;2023-03-03T08:24:44;58.97;;;7.70;;
66087;SDS011;52872;52.994;6.940;2023-03-03T08:27:11;52.67;;;9.65;;
66087;SDS011;52872;52.994;6.940;2023-03-03T08:29:38;45.17;;;7.35;;
66087;SDS011;52872;52.994;6.940;2023-03-03T08:32:05;40.05;;;7.47;;
66087;SDS011;52872;52.994;6.940;2023-03-03T08:34:32;38.95;;;7.28;;
66087;SDS011;52872;52.994;6.940;2023-03-03T08:36:59;43.80;;;7.72;;
66087;SDS011;52872;52.994;6.940;2023-03-03T08:39:26;34.92;;;7.57;;
66087;SDS011;52872;52.994;6.940;2023-03-03T08:41:53;44.97;;;7.43;;
66087;SDS011;52872;52.994;6.940;2023-03-03T08:44:19;38.30;;;7.90;;
66087;SDS011;52872;52.994;6.940;2023-03-03T08:46:46;37.13;;;7.40;;
66087;SDS011;52872;52.994;6.940;2023-03-03T08:49:13;36.72;;;7.65;;
66087;SDS011;52872;52.994;6.940;2023-03-03T08:51:41;26.65;;;7.03;;
66087;SDS011;52872;52.994;6.940;2023-03-03T08:54:08;35.05;;;7.35;;
66087;SDS011;52872;52.994;6.940;2023-03-03T08:56:35;32.47;;;7.93;;
66087;SDS011;52872;52.994;6.940;2023-03-03T08:59:02;63.38;;;9.98;;
66087;SDS011;52872;52.994;6.940;2023-03-03T09:01:32;37.78;;;8.43;;
66087;SDS011;52872;52.994;6.940;2023-03-03T09:04:00;24.65;;;8.98;;
66087;SDS011;52872;52.994;6.940;2023-03-03T09:06:27;21.73;;;7.68;;
66087;SDS011;52872;52.994;6.940;2023-03-03T09:08:54;36.58;;;13.20;;
66087;SDS011;52872;52.994;6.940;2023-03-03T09:11:25;33.22;;;11.50;;
66087;SDS011;52872;52.994;6.940;2023-03-03T09:13:58;16.40;;;9.32;;
66087;SDS011;52872;52.994;6.940;2023-03-03T09:16:33;25.63;;;8.88;;
66087;SDS011;52872;52.994;6.940;2023-03-03T09:19:24;13.30;;;7.82;;
66087;SDS011;52872;52.994;6.940;2023-03-03T09:21:52;16.83;;;7.82;;
66087;SDS011;52872;52.994;6.940;2023-03-03T09:24:29;18.10;;;8.00;;
66087;SDS011;52872;52.994;6.940;2023-03-03T09:26:57;13.32;;;6.65;;
66087;SDS011;52872;52.994;6.940;2023-03-03T09:29:29;13.25;;;7.63;;
66087;SDS011;52872;52.994;6.940;2023-03-03T09:32:06;12.65;;;7.35;;
66087;SDS011;52872;52.994;6.940;2023-03-03T09:34:42;14.20;;;7.80;;
66087;SDS011;52872;52.994;6.940;2023-03-03T09:37:32;15.60;;;8.55;;
66087;SDS011;52872;52.994;6.940;2023-03-03T09:40:10;13.63;;;8.75;;
66087;SDS011;52872;52.994;6.940;2023-03-03T09:43:03;13.00;;;7.72;;
66087;SDS011;52872;52.994;6.940;2023-03-03T09:45:42;14.25;;;7.13;;
66087;SDS011;52872;52.994;6.940;2023-03-03T09:51:21;11.18;;;6.65;;
66087;SDS011;52872;52.994;6.940;2023-03-03T09:54:25;12.77;;;6.97;;
66087;SDS011;52872;52.994;6.940;2023-03-03T10:02:20;11.63;;;6.00;;
66087;SDS011;52872;52.994;6.940;2023-03-03T10:13:49;7.00;;;5.03;;
66087;SDS011;52872;52.994;6.940;2023-03-03T10:16:33;4.30;;;3.90;;
66087;SDS011;52872;52.994;6.940;2023-03-03T10:19:38;6.78;;;4.28;;
66087;SDS011;52872;52.994;6.940;2023-03-03T10:40:36;4.70;;;3.70;;
66087;SDS011;52872;52.994;6.940;2023-03-03T10:54:46;4.30;;;3.90;;
66087;SDS011;52872;52.994;6.940;2023-03-03T10:57:38;3.88;;;3.40;;
66087;SDS011;52872;52.994;6.940;2023-03-03T11:00:14;4.40;;;3.50;;
66087;SDS011;52872;52.994;6.940;2023-03-03T11:11:09;4.13;;;2.95;;
66087;SDS011;52872;52.994;6.940;2023-03-03T11:19:09;4.55;;;3.90;;
66087;SDS011;52872;52.994;6.940;2023-03-03T11:21:46;6.90;;;5.85;;
66087;SDS011;52872;52.994;6.940;2023-03-03T11:24:28;6.20;;;5.60;;
66087;SDS011;52872;52.994;6.940;2023-03-03T11:30:27;5.30;;;2.90;;
66087;SDS011;52872;52.994;6.940;2023-03-03T11:49:40;6.67;;;2.73;;
66087;SDS011;52872;52.994;6.940;2023-03-03T11:52:36;5.90;;;2.63;;
66087;SDS011;52872;52.994;6.940;2023-03-03T11:55:14;3.92;;;2.70;;
66087;SDS011;52872;52.994;6.940;2023-03-03T12:08:41;5.88;;;2.78;;
66087;SDS011;52872;52.994;6.940;2023-03-03T12:19:26;5.32;;;2.40;;
66087;SDS011;52872;52.994;6.940;2023-03-03T12:47:28;4.75;;;2.15;;
66087;SDS011;52872;52.994;6.940;2023-03-03T12:50:02;5.30;;;1.63;;
66087;SDS011;52872;52.994;6.940;2023-03-03T12:55:43;2.47;;;1.52;;
66087;SDS011;52872;52.994;6.940;2023-03-03T13:01:14;2.42;;;1.42;;
66087;SDS011;52872;52.994;6.940;2023-03-03T13:06:47;2.92;;;1.83;;
66087;SDS011;52872;52.994;6.940;2023-03-03T13:12:44;4.60;;;1.70;;
66087;SDS011;52872;52.994;6.940;2023-03-03T13:26:42;3.17;;;1.33;;
66087;SDS011;52872;52.994;6.940;2023-03-03T13:29:20;3.03;;;1.30;;
66087;SDS011;52872;52.994;6.940;2023-03-03T13:31:58;1.58;;;1.10;;
66087;SDS011;52872;52.994;6.940;2023-03-03T13:37:54;1.15;;;0.90;;
66087;SDS011;52872;52.994;6.940;2023-03-03T13:40:14;3.88;;;1.30;;
66087;SDS011;52872;52.994;6.940;2023-03-03T13:42:46;1.55;;;0.98;;
66087;SDS011;52872;52.994;6.940;2023-03-03T13:48:34;3.17;;;1.10;;
66087;SDS011;52872;52.994;6.940;2023-03-03T14:07:36;6.40;;;1.30;;
66087;SDS011;52872;52.994;6.940;2023-03-03T14:19:26;3.28;;;1.05;;
66087;SDS011;52872;52.994;6.940;2023-03-03T14:21:50;3.60;;;1.20;;
66087;SDS011;52872;52.994;6.940;2023-03-03T14:35:39;4.88;;;1.70;;
66087;SDS011;52872;52.994;6.940;2023-03-03T14:38:14;9.88;;;2.15;;
66087;SDS011;52872;52.994;6.940;2023-03-03T14:40:43;10.00;;;2.27;;
66087;SDS011;52872;52.994;6.940;2023-03-03T14:43:25;6.88;;;1.48;;
66087;SDS011;52872;52.994;6.940;2023-03-03T14:46:16;10.50;;;1.90;;
66087;SDS011;52872;52.994;6.940;2023-03-03T14:49:17;7.03;;;2.33;;
66087;SDS011;52872;52.994;6.940;2023-03-03T14:52:04;8.07;;;1.77;;
66087;SDS011;52872;52.994;6.940;2023-03-03T14:54:45;9.52;;;2.00;;
66087;SDS011;52872;52.994;6.940;2023-03-03T14:57:14;6.43;;;1.95;;
66087;SDS011;52872;52.994;6.940;2023-03-03T15:02:43;6.20;;;2.10;;
66087;SDS011;52872;52.994;6.940;2023-03-03T15:05:28;7.05;;;1.80;;
66087;SDS011;52872;52.994;6.940;2023-03-03T15:07:58;8.82;;;1.90;;
66087;SDS011;52872;52.994;6.940;2023-03-03T15:10:36;9.95;;;2.40;;
66087;SDS011;52872;52.994;6.940;2023-03-03T15:15:50;9.57;;;2.13;;
66087;SDS011;52872;52.994;6.940;2023-03-03T15:18:26;6.60;;;2.00;;
66087;SDS011;52872;52.994;6.940;2023-03-03T15:20:59;10.65;;;2.38;;
66087;SDS011;52872;52.994;6.940;2023-03-03T15:23:50;11.15;;;2.20;;
66087;SDS011;52872;52.994;6.940;2023-03-03T15:29:07;14.70;;;3.38;;
66087;SDS011;52872;52.994;6.940;2023-03-03T15:32:03;6.88;;;2.28;;
66087;SDS011;52872;52.994;6.940;2023-03-03T15:50:17;13.30;;;2.63;;
66087;SDS011;52872;52.994;6.940;2023-03-03T15:58:29;19.98;;;3.80;;
66087;SDS011;52872;52.994;6.940;2023-03-03T16:01:33;17.75;;;3.13;;
66087;SDS011;52872;52.994;6.940;2023-03-03T16:04:08;13.10;;;2.63;;
66087;SDS011;52872;52.994;6.940;2023-03-03T16:06:46;12.63;;;2.42;;
66087;SDS011;52872;52.994;6.940;2023-03-03T16:17:21;12.45;;;3.90;;
66087;SDS011;52872;52.994;6.940;2023-03-03T16:20:20;14.82;;;3.13;;
66087;SDS011;52872;52.994;6.940;2023-03-03T16:32:10;11.30;;;3.00;;
66087;SDS011;52872;52.994;6.940;2023-03-03T16:37:39;11.85;;;4.50;;
66087;SDS011;52872;52.994;6.940;2023-03-03T16:40:20;13.15;;;2.90;;
66087;SDS011;52872;52.994;6.940;2023-03-03T16:42:53;14.18;;;3.08;;
66087;SDS011;52872;52.994;6.940;2023-03-03T16:45:54;10.52;;;2.33;;
66087;SDS011;52872;52.994;6.940;2023-03-03T16:51:03;20.55;;;4.32;;
66087;SDS011;52872;52.994;6.940;2023-03-03T16:56:19;13.95;;;2.55;;
66087;SDS011;52872;52.994;6.940;2023-03-03T17:07:02;12.60;;;2.70;;
66087;SDS011;52872;52.994;6.940;2023-03-03T17:09:50;18.25;;;3.67;;
66087;SDS011;52872;52.994;6.940;2023-03-03T17:21:01;15.32;;;2.88;;
66087;SDS011;52872;52.994;6.940;2023-03-03T17:26:23;15.93;;;2.70;;
66087;SDS011;52872;52.994;6.940;2023-03-03T17:31:36;17.48;;;3.15;;
66087;SDS011;52872;52.994;6.940;2023-03-03T17:34:48;16.42;;;3.90;;
66087;SDS011;52872;52.994;6.940;2023-03-03T17:45:28;19.60;;;3.60;;
66087;SDS011;52872;52.994;6.940;2023-03-03T17:59:24;17.55;;;3.83;;
66087;SDS011;52872;52.994;6.940;2023-03-03T18:04:56;11.70;;;2.67;;
66087;SDS011;52872;52.994;6.940;2023-03-03T18:10:47;12.40;;;2.80;;
66087;SDS011;52872;52.994;6.940;2023-03-03T18:16:11;15.75;;;3.53;;
66087;SDS011;52872;52.994;6.940;2023-03-03T18:24:34;16.45;;;3.55;;
66087;SDS011;52872;52.994;6.940;2023-03-03T18:27:29;11.63;;;3.22;;
66087;SDS011;52872;52.994;6.940;2023-03-03T18:32:57;13.55;;;2.00;;
66087;SDS011;52872;52.994;6.940;2023-03-03T19:03:18;16.20;;;4.15;;
66087;SDS011;52872;52.994;6.940;2023-03-03T19:06:00;23.58;;;4.68;;
66087;SDS011;52872;52.994;6.940;2023-03-03T19:11:28;18.85;;;3.65;;
66087;SDS011;52872;52.994;6.940;2023-03-03T19:14:19;16.63;;;3.50;;
66087;SDS011;52872;52.994;6.940;2023-03-03T19:22:45;22.23;;;4.40;;
66087;SDS011;52872;52.994;6.940;2023-03-03T19:25:28;20.27;;;4.40;;
66087;SDS011;52872;52.994;6.940;2023-03-03T19:31:31;22.70;;;4.63;;
66087;SDS011;52872;52.994;6.940;2023-03-03T19:34:05;22.15;;;5.28;;
66087;SDS011;52872;52.994;6.940;2023-03-03T19:39:51;19.15;;;5.07;;
66087;SDS011;52872;52.994;6.940;2023-03-03T19:48:44;24.00;;;4.90;;
66087;SDS011;52872;52.994;6.940;2023-03-03T19:51:16;15.02;;;3.15;;
66087;SDS011;52872;52.994;6.940;2023-03-03T20:05:29;21.63;;;3.63;;
66087;SDS011;52872;52.994;6.940;2023-03-03T20:08:04;17.67;;;3.67;;
66087;SDS011;52872;52.994;6.940;2023-03-03T20:10:48;11.38;;;3.25;;
66087;SDS011;52872;52.994;6.940;2023-03-03T20:21:30;15.93;;;3.33;;
66087;SDS011;52872;52.994;6.940;2023-03-03T20:24:22;17.35;;;3.42;;
66087;SDS011;52872;52.994;6.940;2023-03-03T20:27:02;18.48;;;3.47;;
66087;SDS011;52872;52.994;6.940;2023-03-03T20:32:32;13.93;;;3.45;;
66087;SDS011;52872;52.994;6.940;2023-03-03T20:45:57;20.15;;;3.33;;
66087;SDS011;52872;52.994;6.940;2023-03-03T20:48:44;19.35;;;3.45;;
66087;SDS011;52872;52.994;6.940;2023-03-03T20:59:40;12.98;;;2.53;;
66087;SDS011;52872;52.994;6.940;2023-03-03T21:05:06;8.70;;;2.65;;
66087;SDS011;52872;52.994;6.940;2023-03-03T21:07:33;14.30;;;2.28;;
66087;SDS011;52872;52.994;6.940;2023-03-03T21:10:10;10.05;;;2.28;;
66087;SDS011;52872;52.994;6.940;2023-03-03T21:12:52;14.00;;;2.55;;
66087;SDS011;52872;52.994;6.940;2023-03-03T21:15:28;15.70;;;3.15;;
66087;SDS011;52872;52.994;6.940;2023-03-03T21:17:57;16.35;;;3.10;;
66087;SDS011;52872;52.994;6.940;2023-03-03T21:22:52;10.10;;;2.75;;
66087;SDS011;52872;52.994;6.940;2023-03-03T21:28:40;18.30;;;2.78;;
66087;SDS011;52872;52.994;6.940;2023-03-03T21:31:08;17.73;;;2.75;;
66087;SDS011;52872;52.994;6.940;2023-03-03T21:33:42;10.40;;;2.97;;
66087;SDS011;52872;52.994;6.940;2023-03-03T21:36:42;5.20;;;1.73;;
66087;SDS011;52872;52.994;6.940;2023-03-03T21:46:59;13.75;;;3.42;;
66087;SDS011;52872;52.994;6.940;2023-03-03T21:49:26;17.33;;;2.80;;
66087;SDS011;52872;52.994;6.940;2023-03-03T21:51:54;14.07;;;3.05;;
66087;SDS011;52872;52.994;6.940;2023-03-03T21:54:22;17.73;;;2.83;;
66087;SDS011;52872;52.994;6.940;2023-03-03T21:56:49;17.23;;;2.95;;
66087;SDS011;52872;52.994;6.940;2023-03-03T21:59:17;11.73;;;2.55;;
66087;SDS011;52872;52.994;6.940;2023-03-03T22:01:44;11.90;;;2.70;;
66087;SDS011;52872;52.994;6.940;2023-03-03T22:04:11;18.10;;;2.60;;
66087;SDS011;52872;52.994;6.940;2023-03-03T22:06:38;9.85;;;2.28;;
66087;SDS011;52872;52.994;6.940;2023-03-03T22:09:05;15.35;;;2.40;;
66087;SDS011;52872;52.994;6.940;2023-03-03T22:11:33;10.32;;;3.10;;
66087;SDS011;52872;52.994;6.940;2023-03-03T22:14:00;14.45;;;2.38;;
66087;SDS011;52872;52.994;6.940;2023-03-03T22:16:27;15.32;;;2.17;;
66087;SDS011;52872;52.994;6.940;2023-03-03T22:18:54;13.45;;;2.80;;
66087;SDS011;52872;52.994;6.940;2023-03-03T22:21:21;9.23;;;2.45;;
66087;SDS011;52872;52.994;6.940;2023-03-03T22:23:48;19.48;;;2.80;;
66087;SDS011;52872;52.994;6.940;2023-03-03T22:26:15;12.10;;;2.63;;
66087;SDS011;52872;52.994;6.940;2023-03-03T22:28:43;13.43;;;2.50;;
66087;SDS011;52872;52.994;6.940;2023-03-03T22:31:10;8.48;;;1.95;;
66087;SDS011;52872;52.994;6.940;2023-03-03T22:33:37;3.05;;;1.40;;
66087;SDS011;52872;52.994;6.940;2023-03-03T22:36:04;10.05;;;2.40;;